Hana, Hawaii
Current Conditions -  °F | °C
As of 8:54 AM on Thursday 23 Oct 2014 (Local Time) from PHOG Reporting Station
Few Clouds Few Clouds  
Wind Chill: 82°   Ceiling: Unl
Heat Index: 86°   Visibility: 10mi
Dew Point: 70°   Wind: 13mph
Humidity: 67%   Direction: 30°NNE
Pressure: 30.06"   Gusts: NA
Location:  20.75°N, 155.98°W
Report Text: PHOG 231854Z 03011KT 10SM FEW030 28/21 A3006 RMK AO2 SLP184 T02780211
Loading
Personal Weather Stations






























Interactive Weather Map
Tropical Storm Tracking
New forecast layout! Learn more

10-Day Weather Forecast

Advertisements
Track Severe Weather on mobile